Time;durP1;ratioP1;P1;durP2;ratioP2;P2;SDS_P1;SDS_P2;PMS_P1;PMS_P2;Temp;Humidity;BMP_temperature;BMP_pressure;BME280_temperature;BME280_humidity;BME280_pressure;Samples;Min_cycle;Max_cycle;Signal;HPM_P1;HPM_P2
2023/08/31 00:02:25;;;;;;;239.83;232.60;;;15.10;99.90;;;;;;5023105;28;20200;-92
2023/08/31 00:04:53;;;;;;;255.83;248.27;;;15.10;99.90;;;;;;5023875;28;20546;-92
2023/08/31 00:07:21;;;;;;;268.90;261.23;;;15.00;99.90;;;;;;5001978;28;20182;-93
2023/08/31 00:09:47;;;;;;;239.03;232.17;;;15.10;99.90;;;;;;5026031;28;20711;-93
2023/08/31 00:12:13;;;;;;;257.73;250.23;;;15.10;99.90;;;;;;5044383;28;20284;-92
2023/08/31 00:14:38;;;;;;;261.07;253.57;;;15.10;99.90;;;;;;5041213;28;20227;-91
2023/08/31 00:17:05;;;;;;;266.07;258.43;;;15.10;99.90;;;;;;5062830;28;20172;-92
2023/08/31 00:19:30;;;;;;;259.17;251.77;;;15.20;99.90;;;;;;5059883;28;20197;-91
2023/08/31 00:21:56;;;;;;;268.53;260.73;;;15.20;99.90;;;;;;5062146;28;20168;-92
2023/08/31 00:24:28;;;;;;;262.40;254.87;;;15.20;99.90;;;;;;5060567;28;20199;-92
2023/08/31 00:26:53;;;;;;;256.30;248.90;;;15.10;99.90;;;;;;5060859;28;20259;-92
2023/08/31 00:29:19;;;;;;;264.03;256.23;;;15.10;99.90;;;;;;5060949;28;20242;-91
2023/08/31 00:31:46;;;;;;;254.47;247.00;;;15.00;99.90;;;;;;5043125;28;20219;-92
2023/08/31 00:34:17;;;;;;;257.30;249.90;;;15.00;99.90;;;;;;5058732;28;20367;-92
2023/08/31 00:36:43;;;;;;;258.47;251.07;;;15.10;99.90;;;;;;5049818;28;20190;-92
2023/08/31 00:39:10;;;;;;;253.43;246.10;;;14.90;99.90;;;;;;5041120;28;20188;-93
2023/08/31 00:41:36;;;;;;;247.07;239.93;;;14.90;99.90;;;;;;5039247;28;20180;-91
2023/08/31 00:44:04;;;;;;;247.83;240.37;;;14.70;99.90;;;;;;5040289;28;20194;-91
2023/08/31 00:46:31;;;;;;;244.83;237.63;;;14.80;99.90;;;;;;5039470;28;20195;-92
2023/08/31 00:48:58;;;;;;;226.57;220.00;;;14.70;99.90;;;;;;5040261;28;20545;-92
2023/08/31 00:51:24;;;;;;;317.90;308.70;;;14.60;99.90;;;;;;5039968;28;20202;-92
2023/08/31 00:53:54;;;;;;;271.37;263.57;;;14.60;99.90;;;;;;5040141;28;20292;-92
2023/08/31 00:56:20;;;;;;;270.17;262.47;;;14.70;99.90;;;;;;5040686;28;20203;-91
2023/08/31 00:58:46;;;;;;;283.57;275.47;;;14.60;99.90;;;;;;5040315;28;20210;-92
2023/08/31 01:01:35;;;;;;;288.27;279.87;;;14.60;99.90;;;;;;5039653;28;20179;-92
2023/08/31 01:04:10;;;;;;;241.97;234.87;;;14.70;99.90;;;;;;5053958;28;20283;-92
2023/08/31 01:06:47;;;;;;;251.47;244.23;;;14.60;99.90;;;;;;5039494;28;20259;-94
2023/08/31 01:09:36;;;;;;;245.90;238.80;;;14.60;99.90;;;;;;5043085;28;20194;-92
2023/08/31 01:12:31;;;;;;;232.27;225.43;;;14.50;99.90;;;;;;5062416;28;20291;-92
2023/08/31 01:15:02;;;;;;;220.07;213.57;;;14.50;99.90;;;;;;5038199;28;20307;-91
2023/08/31 01:17:31;;;;;;;219.40;212.97;;;14.50;99.90;;;;;;5042400;28;20186;-92
2023/08/31 01:20:00;;;;;;;233.73;226.93;;;14.50;99.90;;;;;;5059554;28;20193;-91
2023/08/31 01:22:40;;;;;;;215.70;209.17;;;14.40;99.90;;;;;;5058380;28;20387;-92
2023/08/31 01:25:09;;;;;;;222.80;216.23;;;14.50;99.90;;;;;;5060265;28;20225;-91
2023/08/31 01:27:35;;;;;;;230.27;223.47;;;14.40;99.90;;;;;;5060910;28;20184;-92
2023/08/31 01:30:03;;;;;;;240.70;233.80;;;14.40;99.90;;;;;;5059838;28;20272;-92
2023/08/31 01:32:29;;;;;;;241.17;233.87;;;14.40;99.90;;;;;;5053167;28;20301;-92
2023/08/31 01:34:57;;;;;;;224.67;218.13;;;14.40;99.90;;;;;;5040052;28;20217;-92
2023/08/31 01:37:38;;;;;;;219.37;213.03;;;14.30;99.90;;;;;;5056026;28;20198;-91
2023/08/31 01:40:14;;;;;;;213.87;207.60;;;14.40;99.90;;;;;;5059093;28;20189;-93
2023/08/31 01:42:42;;;;;;;204.37;198.37;;;14.40;99.90;;;;;;5059343;28;20265;-91
2023/08/31 01:45:09;;;;;;;228.23;221.47;;;14.40;99.90;;;;;;5059140;28;20219;-94
2023/08/31 01:47:36;;;;;;;235.60;228.73;;;14.50;99.90;;;;;;5059841;28;20181;-93
2023/08/31 01:50:02;;;;;;;225.87;218.97;;;14.50;99.90;;;;;;5061754;28;20260;-92
2023/08/31 01:52:27;;;;;;;240.07;233.17;;;14.60;99.90;;;;;;5059958;28;20226;-94
2023/08/31 01:54:53;;;;;;;224.67;218.00;;;14.50;99.90;;;;;;5058128;28;20208;-91
2023/08/31 01:57:19;;;;;;;228.10;221.47;;;14.50;99.90;;;;;;5041427;28;20270;-92
2023/08/31 01:59:44;;;;;;;234.40;227.53;;;14.50;99.90;;;;;;5058180;28;20207;-93
2023/08/31 02:02:10;;;;;;;245.43;238.40;;;14.50;99.90;;;;;;5058394;28;20245;-92
2023/08/31 02:04:36;;;;;;;250.10;242.87;;;14.50;99.90;;;;;;5057842;28;20364;-91
2023/08/31 02:07:02;;;;;;;240.23;233.23;;;14.50;99.90;;;;;;5040201;28;20210;-94
2023/08/31 02:09:28;;;;;;;231.37;224.67;;;14.50;99.90;;;;;;5044879;28;20200;-92
2023/08/31 02:11:54;;;;;;;235.43;228.20;;;14.50;99.90;;;;;;5039144;28;20215;-91
2023/08/31 02:14:19;;;;;;;237.13;230.33;;;14.40;99.90;;;;;;5038814;28;20193;-92
2023/08/31 02:16:45;;;;;;;236.60;229.67;;;14.40;99.90;;;;;;5039591;28;20787;-93
2023/08/31 02:19:11;;;;;;;234.30;227.30;;;14.40;99.90;;;;;;5039681;28;20203;-92
2023/08/31 02:21:36;;;;;;;239.77;232.53;;;14.40;99.90;;;;;;5039555;28;20182;-91
2023/08/31 02:24:03;;;;;;;237.33;230.47;;;14.50;99.90;;;;;;5039520;28;20689;-91
2023/08/31 02:26:28;;;;;;;246.27;239.20;;;14.50;99.90;;;;;;5039798;28;20609;-91
2023/08/31 02:28:54;;;;;;;262.40;254.50;;;14.50;99.90;;;;;;5039686;28;20196;-93
2023/08/31 02:31:20;;;;;;;245.77;238.47;;;14.60;99.90;;;;;;5039781;28;20209;-92
2023/08/31 02:33:46;;;;;;;247.43;240.30;;;14.40;99.90;;;;;;5022431;28;20228;-92
2023/08/31 02:36:12;;;;;;;245.10;237.90;;;14.40;99.90;;;;;;5019752;28;20184;-92
2023/08/31 02:38:38;;;;;;;245.50;238.10;;;14.50;99.90;;;;;;5020021;28;20595;-90
2023/08/31 02:41:03;;;;;;;220.70;214.27;;;14.40;99.90;;;;;;5020249;28;20659;-92
2023/08/31 02:43:30;;;;;;;235.20;228.30;;;14.50;99.90;;;;;;5019257;28;20208;-92
2023/08/31 02:46:02;;;;;;;234.80;228.03;;;14.60;99.90;;;;;;5019811;28;20183;-92
2023/08/31 02:48:29;;;;;;;238.97;232.07;;;14.50;99.90;;;;;;5018326;28;20190;-90
2023/08/31 02:51:00;;;;;;;233.10;226.10;;;14.60;99.90;;;;;;5020244;28;20203;-92
2023/08/31 02:53:27;;;;;;;221.13;214.73;;;14.60;99.90;;;;;;5019539;28;20207;-91
2023/08/31 02:55:53;;;;;;;229.07;222.20;;;14.40;99.90;;;;;;5019780;28;20193;-91
2023/08/31 02:58:19;;;;;;;247.57;240.43;;;14.50;99.90;;;;;;5019331;28;20182;-91
2023/08/31 03:00:47;;;;;;;257.40;250.07;;;14.60;99.90;;;;;;5021525;28;20721;-92
2023/08/31 03:03:17;;;;;;;243.20;236.07;;;14.60;99.90;;;;;;5023120;28;20226;-92
2023/08/31 03:05:44;;;;;;;241.97;234.63;;;14.70;99.90;;;;;;5029255;28;20206;-90
2023/08/31 03:08:10;;;;;;;235.40;228.27;;;14.60;99.90;;;;;;5042240;28;20178;-94
2023/08/31 03:10:36;;;;;;;243.50;236.43;;;14.70;99.90;;;;;;5056916;28;20183;-93
2023/08/31 03:13:02;;;;;;;237.77;230.83;;;14.50;99.90;;;;;;5062578;28;20753;-92
2023/08/31 03:15:28;;;;;;;227.33;220.73;;;14.60;99.90;;;;;;5062691;28;20184;-93
2023/08/31 03:17:54;;;;;;;222.93;216.40;;;14.50;99.90;;;;;;5062370;28;20185;-92
2023/08/31 03:20:20;;;;;;;231.37;224.70;;;14.60;99.90;;;;;;5060932;28;20181;-92
2023/08/31 03:22:45;;;;;;;228.70;221.23;;;14.50;99.90;;;;;;5062149;28;20202;-92
2023/08/31 03:25:11;;;;;;;226.27;219.40;;;14.40;99.90;;;;;;5053146;28;20190;-92
2023/08/31 03:27:37;;;;;;;234.10;227.20;;;14.50;99.90;;;;;;5042569;28;20682;-92
2023/08/31 03:30:04;;;;;;;230.83;224.13;;;14.40;99.90;;;;;;5022698;28;20600;-93
2023/08/31 03:32:29;;;;;;;222.90;216.23;;;14.40;99.90;;;;;;5022049;28;20197;-92
2023/08/31 03:34:55;;;;;;;230.00;222.67;;;14.50;99.90;;;;;;5022171;28;20224;-92
2023/08/31 03:37:21;;;;;;;234.37;227.40;;;14.50;99.90;;;;;;5022522;28;20180;-92
2023/08/31 03:39:50;;;;;;;246.77;239.37;;;14.50;99.90;;;;;;5022014;28;20190;-92
2023/08/31 03:42:16;;;;;;;232.77;225.80;;;14.50;99.90;;;;;;5022253;28;20195;-91
2023/08/31 03:44:42;;;;;;;235.43;228.53;;;14.40;99.90;;;;;;5021223;28;20200;-92
2023/08/31 03:47:07;;;;;;;222.60;215.70;;;14.40;99.90;;;;;;5023375;28;20193;-91
2023/08/31 03:49:34;;;;;;;223.73;217.20;;;14.50;99.90;;;;;;5004442;28;20188;-91
2023/08/31 03:52:00;;;;;;;222.07;215.57;;;14.50;99.90;;;;;;5021661;28;20207;-91
2023/08/31 03:54:26;;;;;;;223.93;217.23;;;14.50;99.90;;;;;;5019917;28;20210;-91
2023/08/31 03:56:52;;;;;;;220.80;214.40;;;14.40;99.90;;;;;;5021044;28;20180;-91
2023/08/31 03:59:18;;;;;;;217.57;210.97;;;14.50;99.90;;;;;;5021971;28;20611;-93
2023/08/31 04:01:44;;;;;;;212.27;205.87;;;14.20;99.90;;;;;;5020541;28;20213;-91
2023/08/31 04:04:09;;;;;;;214.27;207.93;;;14.30;99.90;;;;;;5022049;28;20195;-92
2023/08/31 04:06:35;;;;;;;211.57;205.17;;;14.40;99.90;;;;;;5023320;28;20251;-93
2023/08/31 04:09:01;;;;;;;213.30;206.93;;;14.50;99.90;;;;;;5022385;28;20176;-91
2023/08/31 04:11:27;;;;;;;205.43;199.40;;;14.50;99.90;;;;;;5024110;28;20216;-92
2023/08/31 04:13:53;;;;;;;217.63;211.07;;;14.40;99.90;;;;;;5021420;28;20197;-91
2023/08/31 04:16:18;;;;;;;211.97;205.57;;;14.50;99.90;;;;;;5028053;28;20199;-92
2023/08/31 04:18:47;;;;;;;218.73;212.37;;;14.30;99.90;;;;;;5024976;28;20254;-93
2023/08/31 04:21:13;;;;;;;215.57;209.27;;;14.50;99.90;;;;;;5026643;28;20180;-93
2023/08/31 04:23:39;;;;;;;251.40;243.93;;;14.30;99.90;;;;;;5023831;28;20208;-92
2023/08/31 04:26:13;;;;;;;218.83;212.23;;;14.30;99.90;;;;;;5058447;28;20213;-92
2023/08/31 04:28:41;;;;;;;222.10;215.60;;;14.30;99.90;;;;;;5061647;28;20179;-92
2023/08/31 04:31:09;;;;;;;223.10;216.57;;;14.30;99.90;;;;;;5061182;28;20219;-92
2023/08/31 04:33:37;;;;;;;205.33;199.27;;;14.40;99.90;;;;;;5060258;28;20279;-91
2023/08/31 04:36:04;;;;;;;220.47;214.00;;;14.40;99.90;;;;;;5060583;28;20180;-93
2023/08/31 04:38:34;;;;;;;216.33;209.73;;;14.40;99.90;;;;;;5060647;28;20297;-90
2023/08/31 04:41:00;;;;;;;216.67;210.37;;;14.50;99.90;;;;;;5060573;28;20211;-92
2023/08/31 04:43:26;;;;;;;220.30;213.90;;;14.40;99.90;;;;;;5062692;28;20205;-93
2023/08/31 04:45:52;;;;;;;220.70;214.00;;;14.40;99.90;;;;;;5061017;28;20182;-92
2023/08/31 04:48:21;;;;;;;216.07;209.67;;;14.40;99.90;;;;;;5059558;28;20193;-91
2023/08/31 04:50:47;;;;;;;205.60;199.47;;;14.40;99.90;;;;;;5060279;28;20202;-92
2023/08/31 04:53:12;;;;;;;216.33;209.90;;;14.50;99.90;;;;;;5058473;28;20673;-92
2023/08/31 04:55:39;;;;;;;226.17;219.53;;;14.60;99.90;;;;;;5038965;28;20174;-92
2023/08/31 04:58:05;;;;;;;238.57;231.63;;;14.60;99.90;;;;;;5058932;28;20652;-92
2023/08/31 05:00:31;;;;;;;232.77;226.07;;;14.40;99.90;;;;;;5058000;28;20182;-92
2023/08/31 05:02:57;;;;;;;258.07;250.43;;;14.50;99.90;;;;;;5057628;28;20262;-92
2023/08/31 05:05:23;;;;;;;260.37;252.57;;;14.70;99.90;;;;;;5060211;28;20183;-91
2023/08/31 05:07:49;;;;;;;256.50;248.77;;;14.70;99.90;;;;;;5060680;28;20179;-92
2023/08/31 05:10:16;;;;;;;272.07;264.27;;;14.70;99.90;;;;;;5059359;28;20198;-93
2023/08/31 05:12:42;;;;;;;263.10;255.50;;;14.70;99.90;;;;;;5060319;28;20286;-92
2023/08/31 05:15:09;;;;;;;233.33;226.47;;;14.60;99.90;;;;;;5060381;28;20225;-92
2023/08/31 05:17:38;;;;;;;240.50;233.40;;;14.50;99.90;;;;;;5051353;28;20178;-93
2023/08/31 05:20:05;;;;;;;242.00;234.73;;;14.50;99.90;;;;;;5041162;28;20205;-92
2023/08/31 05:22:34;;;;;;;217.17;210.83;;;14.50;99.90;;;;;;5005421;28;20235;-92
2023/08/31 05:25:04;;;;;;;209.43;203.33;;;14.40;99.90;;;;;;5020810;28;20244;-92
2023/08/31 05:27:30;;;;;;;205.67;199.20;;;14.40;99.90;;;;;;5020301;28;20663;-91
2023/08/31 05:29:55;;;;;;;203.83;197.70;;;14.40;99.90;;;;;;5020749;28;20182;-92
2023/08/31 05:32:27;;;;;;;206.70;200.47;;;14.30;99.90;;;;;;5020689;28;20272;-92
2023/08/31 05:34:53;;;;;;;220.53;214.07;;;14.30;99.90;;;;;;5020986;28;20246;-93
2023/08/31 05:37:19;;;;;;;216.57;209.77;;;14.50;99.90;;;;;;5020684;28;20172;-92
2023/08/31 05:39:51;;;;;;;230.83;224.13;;;14.60;99.90;;;;;;5020672;28;20282;-92
2023/08/31 05:42:17;;;;;;;260.07;252.23;;;14.70;99.90;;;;;;5003082;28;20177;-93
2023/08/31 05:44:43;;;;;;;267.73;259.90;;;14.80;99.90;;;;;;5020510;28;20220;-93
2023/08/31 05:47:14;;;;;;;254.20;246.83;;;14.80;99.90;;;;;;5020051;28;20709;-93
2023/08/31 05:49:40;;;;;;;244.03;236.50;;;14.70;99.90;;;;;;5020443;28;20179;-93
2023/08/31 05:52:06;;;;;;;260.73;252.93;;;14.60;99.90;;;;;;5020424;28;20582;-92
2023/08/31 05:54:35;;;;;;;266.50;258.90;;;14.80;99.90;;;;;;5021235;28;20193;-92
2023/08/31 05:57:03;;;;;;;297.20;288.63;;;14.90;99.90;;;;;;5021604;28;20181;-92
2023/08/31 05:59:29;;;;;;;255.43;248.03;;;14.80;99.90;;;;;;5021325;28;20179;-93
2023/08/31 06:01:54;;;;;;;267.53;259.77;;;14.70;99.90;;;;;;5020613;28;20258;-91
2023/08/31 06:04:20;;;;;;;258.07;250.67;;;14.70;99.90;;;;;;5019613;28;20292;-92
2023/08/31 06:06:46;;;;;;;269.37;261.50;;;14.70;99.90;;;;;;5035010;28;20327;-92
2023/08/31 06:09:12;;;;;;;251.83;244.47;;;14.70;99.90;;;;;;5039505;28;20184;-92
2023/08/31 06:11:40;;;;;;;233.53;226.73;;;14.70;99.90;;;;;;5040204;28;20234;-92
2023/08/31 06:14:06;;;;;;;247.13;239.93;;;14.70;99.90;;;;;;5039992;28;20221;-91
2023/08/31 06:16:37;;;;;;;234.30;227.50;;;14.70;99.90;;;;;;5040060;28;20229;-92
2023/08/31 06:19:05;;;;;;;227.73;220.97;;;14.80;99.90;;;;;;5022404;28;20176;-92
2023/08/31 06:21:30;;;;;;;259.67;252.23;;;14.80;99.90;;;;;;5039781;28;20205;-92
2023/08/31 06:23:56;;;;;;;276.13;268.10;;;14.90;99.90;;;;;;5039686;28;20193;-93
2023/08/31 06:26:25;;;;;;;286.67;278.33;;;15.00;99.90;;;;;;5037438;28;20186;-91
2023/08/31 06:28:51;;;;;;;300.67;291.83;;;15.20;99.90;;;;;;5039273;28;20220;-93
2023/08/31 06:31:16;;;;;;;298.23;289.63;;;15.40;99.90;;;;;;5039073;28;20201;-93
2023/08/31 06:33:44;;;;;;;293.83;285.20;;;15.20;99.90;;;;;;5021416;28;20223;-92
2023/08/31 06:36:12;;;;;;;299.43;290.63;;;15.20;99.90;;;;;;5046148;28;20176;-90
2023/08/31 06:38:38;;;;;;;297.63;288.73;;;15.10;99.90;;;;;;5042804;28;20170;-93
2023/08/31 06:41:04;;;;;;;293.87;285.33;;;14.90;99.90;;;;;;5042416;28;20183;-92
2023/08/31 06:43:30;;;;;;;270.97;263.07;;;14.80;99.90;;;;;;5042776;28;20278;-93
2023/08/31 06:45:56;;;;;;;259.67;252.23;;;14.80;99.90;;;;;;5041210;28;20263;-93
2023/08/31 06:48:22;;;;;;;275.30;267.47;;;15.00;99.90;;;;;;5039532;28;20188;-91
2023/08/31 06:50:48;;;;;;;278.70;270.53;;;15.30;99.90;;;;;;5038971;28;20250;-91
2023/08/31 06:53:13;;;;;;;345.87;335.17;;;15.30;99.90;;;;;;5038995;28;20209;-92
2023/08/31 06:55:39;;;;;;;307.27;298.33;;;15.40;99.90;;;;;;5039500;28;20196;-92
2023/08/31 06:58:05;;;;;;;311.23;302.13;;;15.60;99.90;;;;;;5039408;28;20261;-92
2023/08/31 07:00:32;;;;;;;306.73;297.57;;;15.50;99.90;;;;;;5039561;28;20204;-92
2023/08/31 07:02:58;;;;;;;322.77;312.93;;;15.70;99.90;;;;;;5044253;28;20183;-91
2023/08/31 07:05:26;;;;;;;325.57;315.93;;;15.60;99.90;;;;;;5047667;28;20233;-92
2023/08/31 07:07:55;;;;;;;302.67;293.83;;;15.70;99.90;;;;;;5044654;28;20173;-93
2023/08/31 07:10:21;;;;;;;261.47;253.80;;;15.80;99.90;;;;;;5046563;28;20188;-91
2023/08/31 07:12:47;;;;;;;317.70;308.33;;;15.50;99.90;;;;;;5024731;28;20211;-92
2023/08/31 07:15:13;;;;;;;328.33;318.57;;;15.80;99.90;;;;;;5021243;28;20561;-93
2023/08/31 07:17:38;;;;;;;347.40;336.87;;;16.00;99.90;;;;;;5020512;28;20485;-92
2023/08/31 07:20:07;;;;;;;340.23;330.20;;;16.10;99.90;;;;;;5019869;28;20185;-92
2023/08/31 07:22:36;;;;;;;335.40;325.47;;;15.90;99.90;;;;;;5021486;28;20184;-92
2023/08/31 07:25:03;;;;;;;337.93;327.87;;;15.90;99.90;;;;;;5022852;28;20206;-91
2023/08/31 07:27:29;;;;;;;327.83;318.00;;;15.80;99.20;;;;;;5021551;28;20223;-91
2023/08/31 07:29:55;;;;;;;315.40;306.03;;;16.10;99.90;;;;;;5021056;28;20220;-91
2023/08/31 07:32:20;;;;;;;345.20;334.67;;;16.40;99.60;;;;;;5020067;28;20292;-91
2023/08/31 07:34:46;;;;;;;303.97;294.83;;;16.50;99.90;;;;;;5020796;28;20283;-90
2023/08/31 07:37:12;;;;;;;255.23;247.77;;;16.60;98.10;;;;;;5021787;28;20245;-91
2023/08/31 07:39:37;;;;;;;258.87;251.47;;;16.60;95.50;;;;;;5020178;28;20199;-92
2023/08/31 07:42:05;;;;;;;276.60;268.53;;;16.80;95.80;;;;;;5019050;28;20272;-92
2023/08/31 07:44:31;;;;;;;310.63;301.40;;;16.80;94.20;;;;;;5000916;28;20318;-92
2023/08/31 07:46:57;;;;;;;296.00;286.97;;;16.60;93.40;;;;;;5017789;28;20231;-92
2023/08/31 07:49:22;;;;;;;273.30;265.30;;;16.70;93.10;;;;;;5018976;28;20185;-92
2023/08/31 07:51:49;;;;;;;282.83;274.27;;;16.50;91.90;;;;;;5018302;28;20229;-93
2023/08/31 07:54:21;;;;;;;291.40;282.77;;;16.60;91.30;;;;;;5017829;28;20210;-91
2023/08/31 07:56:47;;;;;;;267.93;260.03;;;16.50;91.80;;;;;;5018975;28;20205;-93
2023/08/31 07:59:13;;;;;;;399.20;383.97;;;16.60;91.80;;;;;;5003199;28;20243;-91
2023/08/31 08:01:38;;;;;;;298.20;288.77;;;16.70;88.20;;;;;;5020024;28;20177;-90
2023/08/31 08:04:04;;;;;;;268.50;260.47;;;16.80;87.90;;;;;;5018360;28;20219;-91
2023/08/31 08:06:30;;;;;;;249.73;242.33;;;16.80;87.00;;;;;;5033143;28;20223;-91
2023/08/31 08:08:55;;;;;;;263.97;255.43;;;16.80;87.00;;;;;;5038947;28;20193;-91
2023/08/31 08:11:22;;;;;;;190.23;184.30;;;17.10;86.20;;;;;;5039512;28;20232;-90
2023/08/31 08:13:48;;;;;;;218.33;211.67;;;17.20;84.70;;;;;;5039043;28;20203;-91
2023/08/31 08:16:14;;;;;;;197.53;191.50;;;17.40;84.40;;;;;;5039997;28;20177;-91
2023/08/31 08:18:40;;;;;;;202.90;196.57;;;17.60;85.40;;;;;;5043735;28;20173;-91
2023/08/31 08:21:06;;;;;;;206.57;200.40;;;17.80;79.30;;;;;;5042640;28;20311;-91
2023/08/31 08:23:32;;;;;;;249.73;242.67;;;18.00;81.30;;;;;;5024760;28;20202;-91
2023/08/31 08:26:00;;;;;;;240.90;233.90;;;17.90;79.30;;;;;;5038780;28;20185;-90
2023/08/31 08:28:26;;;;;;;261.80;254.23;;;17.80;79.80;;;;;;5040503;28;20188;-92
2023/08/31 08:30:52;;;;;;;285.27;276.80;;;18.10;80.10;;;;;;5039020;28;20703;-90
2023/08/31 08:33:17;;;;;;;334.53;324.03;;;17.90;76.20;;;;;;5037556;28;20613;-91
2023/08/31 08:35:43;;;;;;;312.60;303.13;;;17.80;73.60;;;;;;5037144;28;20202;-91
2023/08/31 08:38:09;;;;;;;261.23;253.53;;;17.80;76.30;;;;;;5035849;28;20651;-90
2023/08/31 08:40:35;;;;;;;266.93;258.90;;;18.00;75.70;;;;;;5034980;28;20207;-91
2023/08/31 08:43:04;;;;;;;320.57;307.37;;;18.00;75.30;;;;;;5035045;28;20184;-91
2023/08/31 08:45:38;;;;;;;328.40;318.37;;;18.00;74.20;;;;;;5035395;28;20231;-90
2023/08/31 08:48:08;;;;;;;280.43;272.10;;;17.60;76.50;;;;;;5035289;28;20612;-92
2023/08/31 08:50:35;;;;;;;284.13;275.70;;;17.90;74.80;;;;;;5043987;28;20196;-91
2023/08/31 08:53:02;;;;;;;287.33;277.67;;;18.10;77.20;;;;;;5037622;28;20223;-91
2023/08/31 08:55:28;;;;;;;247.80;240.37;;;18.20;74.40;;;;;;5037416;28;20279;-89
2023/08/31 08:57:54;;;;;;;345.73;335.47;;;18.50;74.50;;;;;;5035851;28;20198;-90
2023/08/31 09:00:19;;;;;;;243.93;236.63;;;18.60;75.30;;;;;;5017429;28;20221;-90
2023/08/31 09:02:46;;;;;;;327.98;317.38;;;18.60;73.10;;;;;;5035490;28;20191;-91
2023/08/31 09:05:11;;;;;;;249.48;242.13;;;18.90;75.70;;;;;;5035482;28;20210;-90
2023/08/31 09:07:38;;;;;;;316.77;307.45;;;18.70;74.60;;;;;;5036821;28;20282;-90
2023/08/31 09:10:04;;;;;;;271.93;263.90;;;18.80;71.10;;;;;;5046894;28;20438;-92
2023/08/31 09:12:30;;;;;;;296.77;288.03;;;18.50;70.00;;;;;;5037889;28;20209;-91
2023/08/31 09:15:07;;;;;;;296.07;287.37;;;18.40;70.90;;;;;;5056155;28;20679;-91
2023/08/31 09:17:44;;;;;;;294.77;286.20;;;18.40;71.10;;;;;;5057233;28;20171;-90
2023/08/31 09:20:10;;;;;;;228.03;221.40;;;18.50;70.60;;;;;;5056696;28;20185;-91
2023/08/31 09:22:36;;;;;;;193.93;188.02;;;18.80;73.60;;;;;;5058912;28;20253;-91
2023/08/31 09:25:03;;;;;;;146.55;141.90;;;19.30;67.40;;;;;;5058267;28;20202;-91
2023/08/31 09:27:31;;;;;;;156.20;151.40;;;19.40;64.80;;;;;;5039458;28;20185;-90
2023/08/31 09:29:56;;;;;;;164.03;159.03;;;19.20;67.40;;;;;;5055174;28;20183;-91
2023/08/31 09:32:22;;;;;;;156.47;151.60;;;19.00;66.90;;;;;;5053945;28;20695;-91
2023/08/31 09:34:49;;;;;;;160.60;155.73;;;18.90;65.40;;;;;;5053849;28;20237;-91
2023/08/31 09:37:16;;;;;;;146.50;142.00;;;18.80;66.20;;;;;;5054334;28;20166;-91
2023/08/31 09:39:42;;;;;;;161.98;157.05;;;19.10;67.30;;;;;;5034439;28;20849;-90
2023/08/31 09:42:08;;;;;;;255.15;247.48;;;19.70;64.70;;;;;;5052448;28;20183;-89
2023/08/31 09:44:41;;;;;;;218.30;211.63;;;19.60;63.10;;;;;;5052286;28;20203;-90
2023/08/31 09:47:07;;;;;;;195.77;189.98;;;19.70;64.80;;;;;;5053886;28;20456;-90
2023/08/31 09:49:34;;;;;;;269.60;261.67;;;19.70;62.20;;;;;;5053581;28;20179;-89
2023/08/31 09:52:03;;;;;;;187.43;181.63;;;20.30;63.10;;;;;;5054603;28;20417;-90
2023/08/31 09:54:30;;;;;;;217.27;210.75;;;20.60;61.20;;;;;;5055515;28;20231;-90
2023/08/31 09:56:58;;;;;;;347.20;330.95;;;20.50;58.80;;;;;;5054662;28;20174;-91
2023/08/31 09:59:24;;;;;;;218.80;211.50;;;20.20;57.70;;;;;;5040400;28;20209;-91
2023/08/31 10:01:50;;;;;;;248.75;241.38;;;19.90;60.30;;;;;;5035171;28;20637;-90
2023/08/31 10:04:16;;;;;;;227.10;220.20;;;20.50;63.00;;;;;;5054220;28;20207;-89
2023/08/31 10:06:43;;;;;;;266.33;258.48;;;20.90;60.60;;;;;;5034149;28;20213;-90
2023/08/31 10:09:09;;;;;;;266.10;258.35;;;20.70;58.50;;;;;;5037932;28;20581;-90
2023/08/31 10:11:36;;;;;;;265.75;257.70;;;20.90;58.50;;;;;;5058402;28;20254;-90
2023/08/31 10:14:04;;;;;;;299.20;290.15;;;20.70;58.90;;;;;;5060018;28;20359;-92
2023/08/31 10:16:30;;;;;;;279.50;271.38;;;19.80;60.30;;;;;;5058958;28;20319;-92
2023/08/31 10:18:56;;;;;;;260.75;252.98;;;20.40;59.50;;;;;;5058491;28;20176;-90
2023/08/31 10:21:23;;;;;;;240.18;233.30;;;19.90;61.10;;;;;;5058132;28;20187;-91
2023/08/31 10:23:49;;;;;;;253.85;245.98;;;19.80;61.50;;;;;;5041145;28;20203;-91
2023/08/31 10:26:31;;;;;;;250.82;243.70;;;19.50;62.40;;;;;;5058346;28;20182;-90
2023/08/31 10:28:58;;;;;;;239.70;232.70;;;20.00;62.10;;;;;;5058180;28;20176;-91
2023/08/31 10:31:28;;;;;;;241.07;233.90;;;19.50;62.10;;;;;;5057195;28;20690;-90
2023/08/31 10:34:05;;;;;;;238.32;231.25;;;19.30;61.70;;;;;;5055898;28;20260;-90
2023/08/31 10:36:39;;;;;;;249.70;242.20;;;18.90;60.30;;;;;;5070530;28;20265;-91
2023/08/31 10:39:11;;;;;;;231.52;224.85;;;19.00;60.30;;;;;;5066749;28;20179;-90
2023/08/31 10:41:37;;;;;;;216.25;209.68;;;19.00;62.00;;;;;;5040770;28;20187;-90
2023/08/31 10:44:18;;;;;;;212.23;206.00;;;19.10;64.00;;;;;;5059070;28;20656;-90
2023/08/31 10:46:44;;;;;;;200.43;194.38;;;19.10;63.10;;;;;;5058039;28;20183;-90
2023/08/31 10:49:10;;;;;;;246.98;239.57;;;19.30;63.30;;;;;;5057694;28;20190;-90
2023/08/31 10:51:37;;;;;;;193.38;187.63;;;19.70;61.40;;;;;;5056998;28;20267;-92
2023/08/31 10:54:23;;;;;;;227.90;221.13;;;20.10;58.20;;;;;;5057912;28;20222;-92
2023/08/31 10:57:01;;;;;;;170.45;164.98;;;20.20;58.90;;;;;;5035832;28;20209;-90
2023/08/31 10:59:46;;;;;;;195.23;189.18;;;20.70;57.50;;;;;;5023211;28;20193;-90
2023/08/31 11:02:36;;;;;;;217.73;211.27;;;20.70;56.90;;;;;;5017586;28;20192;-91
2023/08/31 11:05:11;;;;;;;218.70;212.27;;;20.70;58.40;;;;;;5020611;28;20706;-91
2023/08/31 11:07:43;;;;;;;184.98;179.30;;;20.70;59.30;;;;;;5038234;28;20172;-91
2023/08/31 11:10:13;;;;;;;239.65;232.27;;;20.20;58.20;;;;;;5048702;28;20200;-90
2023/08/31 11:12:40;;;;;;;281.10;272.92;;;19.90;57.50;;;;;;5057044;28;20203;-90
2023/08/31 11:15:07;;;;;;;278.02;269.90;;;19.80;60.10;;;;;;5059318;28;20280;-91
2023/08/31 11:17:33;;;;;;;260.75;253.05;;;19.80;59.90;;;;;;5058367;28;20208;-90
2023/08/31 11:20:00;;;;;;;286.85;278.30;;;19.70;59.20;;;;;;5057597;28;20183;-92
2023/08/31 11:22:27;;;;;;;284.45;275.15;;;19.60;60.50;;;;;;5056311;28;20183;-90
2023/08/31 11:24:53;;;;;;;274.13;265.77;;;19.70;58.90;;;;;;5056602;28;20192;-90
2023/08/31 11:27:21;;;;;;;320.13;310.02;;;20.00;60.80;;;;;;5057189;28;20706;-92
2023/08/31 11:29:47;;;;;;;160.07;154.93;;;20.80;58.50;;;;;;5055678;28;20180;-91
2023/08/31 11:32:13;;;;;;;145.95;141.40;;;21.50;56.40;;;;;;5057115;28;20201;-91
2023/08/31 11:34:45;;;;;;;165.63;160.57;;;21.20;54.10;;;;;;5057330;28;20220;-91
2023/08/31 11:37:16;;;;;;;180.02;174.70;;;21.30;54.50;;;;;;5056337;28;20311;-90
2023/08/31 11:39:52;;;;;;;196.15;190.43;;;22.10;52.50;;;;;;5057083;28;20177;-91
2023/08/31 11:42:19;;;;;;;225.07;218.25;;;21.90;52.30;;;;;;5057171;28;20459;-91
2023/08/31 11:44:50;;;;;;;230.40;223.68;;;21.90;52.40;;;;;;5056549;28;20200;-92
2023/08/31 11:47:16;;;;;;;214.52;208.18;;;22.30;53.50;;;;;;5055607;28;20624;-91
2023/08/31 11:49:44;;;;;;;224.27;217.45;;;21.50;52.30;;;;;;5055576;28;20788;-92
2023/08/31 11:52:11;;;;;;;208.10;201.77;;;21.10;54.60;;;;;;5041656;28;20228;-91
2023/08/31 11:54:39;;;;;;;198.95;193.10;;;21.10;54.60;;;;;;5032964;28;20206;-91
2023/08/31 11:57:08;;;;;;;202.32;196.30;;;21.00;55.10;;;;;;5016350;28;20174;-90
2023/08/31 11:59:36;;;;;;;215.80;209.55;;;20.60;56.90;;;;;;5016169;28;20626;-91
2023/08/31 12:02:04;;;;;;;157.27;152.40;;;21.50;56.90;;;;;;5016042;28;20188;-91
2023/08/31 12:04:30;;;;;;;207.35;201.32;;;22.40;51.50;;;;;;5017892;28;20197;-92
2023/08/31 12:07:04;;;;;;;232.50;225.88;;;22.60;50.40;;;;;;5034062;28;20266;-92
2023/08/31 12:09:30;;;;;;;238.82;231.85;;;22.50;51.70;;;;;;5036199;28;20239;-91
2023/08/31 12:11:56;;;;;;;261.88;253.90;;;22.50;51.30;;;;;;5036959;28;20261;-91